Danville, West Virginia
Current Conditions -  °F | °C
As of 4:10 PM on Tuesday 21 Oct 2014 (Local Time) from KCRW Reporting Station
Overcast Overcast  
Wind Chill: 51°   Ceiling: 2300
Heat Index: 51°   Visibility: 10mi
Dew Point: 43°   Wind: 13mph
Humidity: 74%   Direction: 340°NNW
Pressure: 29.99"   Gusts: 17mph
Location:  38.08°N, 81.83°W
Report Text: KCRW 212010Z 34011G15KT 10SM FEW009 BKN023 OVC045 11/06 A2999 RMK AO2 RAE07 BKN V OVC VCSH P0000 T01060061
Loading
Personal Weather Stations






























Interactive Weather Map
Tropical Storm Tracking
New forecast layout! Learn more

10-Day Weather Forecast

Advertisements
Track Severe Weather on mobile